ADDS METAR Data INFO
IDs: Format: Raw Decoded Include TAF

Data at: 0754 UTC 17 Oct 2017

KTQE 170654Z AUTO 17006KT 10SM CLR 12/ A3008 RMK AO2 SLP177 T0122 $
KTQE 170554Z AUTO 20008KT 10SM CLR 13/ A3008 RMK AO2 SLP178 T0133 10167 20128 402390006 58003 $
KTQE 170454Z AUTO 18008KT 10SM CLR 13/ A3008 RMK AO2 SLP180 T0133 $
KTQE 170354Z AUTO 18007KT 10SM CLR 14/ A3009 RMK AO2 SLP183 T0139 $
KTQE 170254Z AUTO 18007KT 10SM CLR 14/ A3009 RMK AO2 SLP185 T0144 51003 $
KTQE 170154Z AUTO 17006KT 10SM CLR 13/ A3008 RMK AO2 SLP186 T0128 $
KTQE 170054Z AUTO 16007KT 10SM CLR 13/ A3008 RMK AO2 SLP188 T0133 $
KTQE 162354Z AUTO 15007KT 10SM CLR 17/03 A3008 RMK AO2 SLP185 T01670033 10239 20167 56009 $
KTQE 162254Z AUTO 19008KT 10SM CLR 21/02 A3008 RMK AO2 SLP183 T02110022
KTQE 162154Z AUTO 20014G23KT 10SM CLR 23/01 A3009 RMK AO2 SLP185 T02330011
KTQE 162054Z AUTO 18015G23KT 10SM CLR 23/02 A3011 RMK AO2 SLP191 T02330022 56038
KTQE 161954Z AUTO 20015G20KT 10SM CLR 23/02 A3014 RMK AO2 SLP202 T02280017
KTQE 161854Z AUTO 21011G22KT 160V220 10SM CLR 23/01 A3017 RMK AO2 SLP213 T02280011
KTQE 161754Z AUTO 18012G19KT 10SM CLR 21/01 A3022 RMK AO2 SLP231 T02060011 10206 20006 58029
KTQE 161654Z AUTO 19014G19KT 10SM CLR 19/01 A3026 RMK AO2 SLP244 T01940006
KTQE 161554Z AUTO 18008KT 10SM CLR 16/02 A3029 RMK AO2 SLP256 T01610022
KTQE 161454Z AUTO 17005KT 10SM CLR 10/04 A3031 RMK AO2 SLP265 T01000044 57005
KTQE 161354Z AUTO 16003KT 10SM CLR 05/03 A3032 RMK AO2 SLP268 T00500028
KTQE 161254Z AUTO 18005KT 10SM CLR 02/00 A3032 RMK AO2 SLP271 T00170000
KTQE 161154Z AUTO 13003KT 10SM CLR 01/M01 A3033 RMK AO2 SLP272 T00061006 10039 20006 53004
KTQE 161054Z AUTO 23005KT 10SM CLR 01/M01 A3033 RMK AO2 SLP269 T00111006
KTQE 160954Z AUTO 11003KT 10SM CLR 02/01 A3031 RMK AO2 SLP264 T00170006
KTQE 160854Z AUTO 16004KT 10SM CLR 02/01 A3031 RMK AO2 SLP264 T00220006 58003
KTQE 160754Z AUTO 17005KT 10SM CLR 02/01 A3032 RMK AO2 SLP267 T00220006
KTQE 160654Z AUTO 25003KT 10SM CLR 03/01 A3032 RMK AO2 SLP267 T00330011
KTQE 160554Z AUTO 25003KT 10SM CLR 04/01 A3032 RMK AO2 SLP268 T00390011 10111 20033 401720033 51003
KTQE 160454Z AUTO 28006KT 10SM CLR 06/02 A3032 RMK AO2 SLP268 T00610017
KTQE 160354Z AUTO 27006KT 10SM CLR 07/02 A3032 RMK AO2 SLP268 T00670017
KTQE 160254Z AUTO 29005KT 10SM CLR 06/02 A3031 RMK AO2 SLP267 T00560022 53013
KTQE 160154Z AUTO 27004KT 10SM CLR 07/02 A3030 RMK AO2 SLP261 T00670022
KTQE 160054Z AUTO 25006KT 10SM CLR 08/02 A3029 RMK AO2 SLP258 T00780022
KTQE 152354Z AUTO 25005KT 10SM CLR 12/01 A3027 RMK AO2 SLP252 T01170006 10172 20117 55005
KTQE 152254Z AUTO 29005KT 10SM CLR 16/M01 A3027 RMK AO2 SLP248 T01611011
KTQE 152154Z AUTO 29010G17KT 10SM CLR 17/M02 A3028 RMK AO2 SLP250 T01671017
KTQE 152054Z AUTO 28010G19KT 10SM CLR 17/M01 A3029 RMK AO2 SLP254 T01671011 56017